sensor_id;sensor_type;location;lat;lon;timestamp;P1;durP1;ratioP1;P2;durP2;ratioP2
73296;SDS011;61524;50.938;11.396;2023-03-01T00:00:34;21.83;;;9.17;;
73296;SDS011;61524;50.938;11.396;2023-03-01T00:02:59;23.83;;;9.70;;
73296;SDS011;61524;50.938;11.396;2023-03-01T00:05:24;26.13;;;10.37;;
73296;SDS011;61524;50.938;11.396;2023-03-01T00:07:52;17.33;;;8.50;;
73296;SDS011;61524;50.938;11.396;2023-03-01T00:10:17;18.20;;;8.35;;
73296;SDS011;61524;50.938;11.396;2023-03-01T00:12:42;21.70;;;9.32;;
73296;SDS011;61524;50.938;11.396;2023-03-01T00:15:08;19.80;;;9.40;;
73296;SDS011;61524;50.938;11.396;2023-03-01T00:17:33;21.20;;;8.80;;
73296;SDS011;61524;50.938;11.396;2023-03-01T00:19:58;16.73;;;7.23;;
73296;SDS011;61524;50.938;11.396;2023-03-01T00:22:24;19.47;;;9.27;;
73296;SDS011;61524;50.938;11.396;2023-03-01T00:24:49;16.97;;;8.13;;
73296;SDS011;61524;50.938;11.396;2023-03-01T00:27:14;22.10;;;10.80;;
73296;SDS011;61524;50.938;11.396;2023-03-01T00:29:39;20.57;;;9.13;;
73296;SDS011;61524;50.938;11.396;2023-03-01T00:32:04;20.80;;;8.50;;
73296;SDS011;61524;50.938;11.396;2023-03-01T00:34:30;16.27;;;8.23;;
73296;SDS011;61524;50.938;11.396;2023-03-01T00:36:55;19.30;;;8.10;;
73296;SDS011;61524;50.938;11.396;2023-03-01T00:39:20;19.13;;;8.17;;
73296;SDS011;61524;50.938;11.396;2023-03-01T00:41:46;21.70;;;8.83;;
73296;SDS011;61524;50.938;11.396;2023-03-01T00:44:11;17.90;;;8.20;;
73296;SDS011;61524;50.938;11.396;2023-03-01T00:46:36;22.25;;;10.10;;
73296;SDS011;61524;50.938;11.396;2023-03-01T00:49:02;18.17;;;8.05;;
73296;SDS011;61524;50.938;11.396;2023-03-01T00:51:29;21.95;;;9.80;;
73296;SDS011;61524;50.938;11.396;2023-03-01T00:53:55;19.17;;;8.70;;
73296;SDS011;61524;50.938;11.396;2023-03-01T00:56:21;21.63;;;9.55;;
73296;SDS011;61524;50.938;11.396;2023-03-01T00:58:47;18.40;;;8.05;;
73296;SDS011;61524;50.938;11.396;2023-03-01T01:01:16;18.02;;;8.70;;
73296;SDS011;61524;50.938;11.396;2023-03-01T01:03:55;17.15;;;9.50;;
73296;SDS011;61524;50.938;11.396;2023-03-01T01:06:22;21.90;;;9.45;;
73296;SDS011;61524;50.938;11.396;2023-03-01T01:08:48;21.45;;;9.32;;
73296;SDS011;61524;50.938;11.396;2023-03-01T01:11:14;19.40;;;9.35;;
73296;SDS011;61524;50.938;11.396;2023-03-01T01:13:40;21.02;;;10.63;;
73296;SDS011;61524;50.938;11.396;2023-03-01T01:16:05;19.80;;;10.25;;
73296;SDS011;61524;50.938;11.396;2023-03-01T01:18:31;23.30;;;9.90;;
73296;SDS011;61524;50.938;11.396;2023-03-01T01:20:56;19.30;;;9.57;;
73296;SDS011;61524;50.938;11.396;2023-03-01T01:23:21;19.00;;;10.03;;
73296;SDS011;61524;50.938;11.396;2023-03-01T01:25:47;24.00;;;9.60;;
73296;SDS011;61524;50.938;11.396;2023-03-01T01:28:12;20.20;;;9.33;;
73296;SDS011;61524;50.938;11.396;2023-03-01T01:30:37;21.17;;;8.47;;
73296;SDS011;61524;50.938;11.396;2023-03-01T01:33:03;21.63;;;9.07;;
73296;SDS011;61524;50.938;11.396;2023-03-01T01:35:28;25.70;;;10.67;;
73296;SDS011;61524;50.938;11.396;2023-03-01T01:37:53;21.33;;;9.93;;
73296;SDS011;61524;50.938;11.396;2023-03-01T01:40:18;18.90;;;9.07;;
73296;SDS011;61524;50.938;11.396;2023-03-01T01:42:44;19.80;;;10.48;;
73296;SDS011;61524;50.938;11.396;2023-03-01T01:45:29;23.73;;;10.00;;
73296;SDS011;61524;50.938;11.396;2023-03-01T01:47:55;20.90;;;10.25;;
73296;SDS011;61524;50.938;11.396;2023-03-01T01:50:22;26.98;;;11.07;;
73296;SDS011;61524;50.938;11.396;2023-03-01T01:52:48;19.52;;;9.07;;
73296;SDS011;61524;50.938;11.396;2023-03-01T01:55:20;19.98;;;9.48;;
73296;SDS011;61524;50.938;11.396;2023-03-01T01:58:08;21.50;;;8.93;;
73296;SDS011;61524;50.938;11.396;2023-03-01T02:00:32;14.57;;;7.35;;
73296;SDS011;61524;50.938;11.396;2023-03-01T02:03:03;22.80;;;10.07;;
73296;SDS011;61524;50.938;11.396;2023-03-01T02:08:14;20.55;;;9.27;;
73296;SDS011;61524;50.938;11.396;2023-03-01T02:10:40;23.17;;;9.77;;
73296;SDS011;61524;50.938;11.396;2023-03-01T02:13:06;20.23;;;9.68;;
73296;SDS011;61524;50.938;11.396;2023-03-01T02:15:35;25.10;;;9.85;;
73296;SDS011;61524;50.938;11.396;2023-03-01T02:18:01;23.45;;;9.82;;
73296;SDS011;61524;50.938;11.396;2023-03-01T02:22:58;22.88;;;8.52;;
73296;SDS011;61524;50.938;11.396;2023-03-01T02:25:44;19.15;;;8.32;;
73296;SDS011;61524;50.938;11.396;2023-03-01T02:30:43;21.50;;;9.60;;
73296;SDS011;61524;50.938;11.396;2023-03-01T02:33:28;21.17;;;10.02;;
73296;SDS011;61524;50.938;11.396;2023-03-01T02:35:57;17.38;;;8.85;;
73296;SDS011;61524;50.938;11.396;2023-03-01T02:38:23;21.17;;;8.80;;
73296;SDS011;61524;50.938;11.396;2023-03-01T02:40:50;17.65;;;8.88;;
73296;SDS011;61524;50.938;11.396;2023-03-01T02:43:16;17.13;;;8.75;;
73296;SDS011;61524;50.938;11.396;2023-03-01T02:45:49;19.20;;;8.43;;
73296;SDS011;61524;50.938;11.396;2023-03-01T02:48:15;15.40;;;8.57;;
73296;SDS011;61524;50.938;11.396;2023-03-01T02:50:51;20.97;;;8.57;;
73296;SDS011;61524;50.938;11.396;2023-03-01T02:53:22;17.58;;;9.20;;
73296;SDS011;61524;50.938;11.396;2023-03-01T02:55:50;26.17;;;9.32;;
73296;SDS011;61524;50.938;11.396;2023-03-01T02:58:15;25.77;;;10.03;;
73296;SDS011;61524;50.938;11.396;2023-03-01T03:00:41;19.27;;;9.20;;
73296;SDS011;61524;50.938;11.396;2023-03-01T03:03:15;20.27;;;8.07;;
73296;SDS011;61524;50.938;11.396;2023-03-01T03:05:40;20.80;;;9.85;;
73296;SDS011;61524;50.938;11.396;2023-03-01T03:08:06;23.67;;;8.38;;
73296;SDS011;61524;50.938;11.396;2023-03-01T03:10:34;19.90;;;8.15;;
73296;SDS011;61524;50.938;11.396;2023-03-01T03:13:03;19.83;;;9.85;;
73296;SDS011;61524;50.938;11.396;2023-03-01T03:15:28;18.30;;;9.10;;
73296;SDS011;61524;50.938;11.396;2023-03-01T03:17:54;28.02;;;8.98;;
73296;SDS011;61524;50.938;11.396;2023-03-01T03:20:20;20.27;;;8.98;;
73296;SDS011;61524;50.938;11.396;2023-03-01T03:22:47;20.52;;;8.60;;
73296;SDS011;61524;50.938;11.396;2023-03-01T03:25:13;16.30;;;8.13;;
73296;SDS011;61524;50.938;11.396;2023-03-01T03:27:39;21.25;;;10.00;;
73296;SDS011;61524;50.938;11.396;2023-03-01T03:30:05;25.40;;;9.35;;
73296;SDS011;61524;50.938;11.396;2023-03-01T03:32:36;22.48;;;8.85;;
73296;SDS011;61524;50.938;11.396;2023-03-01T03:35:02;17.83;;;8.57;;
73296;SDS011;61524;50.938;11.396;2023-03-01T03:37:33;20.52;;;9.30;;
73296;SDS011;61524;50.938;11.396;2023-03-01T03:40:17;17.60;;;8.48;;
73296;SDS011;61524;50.938;11.396;2023-03-01T03:42:42;17.93;;;9.33;;
73296;SDS011;61524;50.938;11.396;2023-03-01T03:45:08;21.77;;;8.97;;
73296;SDS011;61524;50.938;11.396;2023-03-01T03:47:33;23.52;;;9.88;;
73296;SDS011;61524;50.938;11.396;2023-03-01T03:49:58;19.23;;;8.87;;
73296;SDS011;61524;50.938;11.396;2023-03-01T03:52:24;24.40;;;9.67;;
73296;SDS011;61524;50.938;11.396;2023-03-01T03:54:49;16.83;;;9.37;;
73296;SDS011;61524;50.938;11.396;2023-03-01T03:57:14;20.07;;;8.80;;
73296;SDS011;61524;50.938;11.396;2023-03-01T03:59:39;18.27;;;9.43;;
73296;SDS011;61524;50.938;11.396;2023-03-01T04:02:05;24.13;;;9.77;;
73296;SDS011;61524;50.938;11.396;2023-03-01T04:04:30;21.58;;;8.90;;
73296;SDS011;61524;50.938;11.396;2023-03-01T04:06:55;20.50;;;8.80;;
73296;SDS011;61524;50.938;11.396;2023-03-01T04:09:21;19.23;;;8.83;;
73296;SDS011;61524;50.938;11.396;2023-03-01T04:11:46;20.30;;;8.60;;
73296;SDS011;61524;50.938;11.396;2023-03-01T04:14:11;19.93;;;9.13;;
73296;SDS011;61524;50.938;11.396;2023-03-01T04:16:36;23.63;;;8.87;;
73296;SDS011;61524;50.938;11.396;2023-03-01T04:19:02;15.40;;;8.03;;
73296;SDS011;61524;50.938;11.396;2023-03-01T04:21:27;22.48;;;9.88;;
73296;SDS011;61524;50.938;11.396;2023-03-01T04:23:53;17.90;;;9.48;;
73296;SDS011;61524;50.938;11.396;2023-03-01T04:26:19;17.33;;;8.90;;
73296;SDS011;61524;50.938;11.396;2023-03-01T04:28:45;18.42;;;9.18;;
73296;SDS011;61524;50.938;11.396;2023-03-01T04:31:11;13.98;;;8.15;;
73296;SDS011;61524;50.938;11.396;2023-03-01T04:33:46;22.65;;;9.90;;
73296;SDS011;61524;50.938;11.396;2023-03-01T04:36:13;16.98;;;9.70;;
73296;SDS011;61524;50.938;11.396;2023-03-01T04:38:39;20.27;;;9.50;;
73296;SDS011;61524;50.938;11.396;2023-03-01T04:41:05;20.98;;;8.02;;
73296;SDS011;61524;50.938;11.396;2023-03-01T04:43:31;20.45;;;9.13;;
73296;SDS011;61524;50.938;11.396;2023-03-01T04:46:00;18.15;;;8.52;;
73296;SDS011;61524;50.938;11.396;2023-03-01T04:48:27;18.48;;;8.13;;
73296;SDS011;61524;50.938;11.396;2023-03-01T04:50:53;17.23;;;9.38;;
73296;SDS011;61524;50.938;11.396;2023-03-01T04:53:18;24.00;;;9.30;;
73296;SDS011;61524;50.938;11.396;2023-03-01T04:55:43;20.95;;;9.93;;
73296;SDS011;61524;50.938;11.396;2023-03-01T04:58:08;20.47;;;9.47;;
73296;SDS011;61524;50.938;11.396;2023-03-01T05:00:34;19.75;;;8.63;;
73296;SDS011;61524;50.938;11.396;2023-03-01T05:03:00;23.25;;;9.55;;
73296;SDS011;61524;50.938;11.396;2023-03-01T05:07:51;17.50;;;8.47;;
73296;SDS011;61524;50.938;11.396;2023-03-01T05:10:17;26.77;;;10.35;;
73296;SDS011;61524;50.938;11.396;2023-03-01T05:12:42;22.63;;;10.23;;
73296;SDS011;61524;50.938;11.396;2023-03-01T05:15:07;25.73;;;9.20;;
73296;SDS011;61524;50.938;11.396;2023-03-01T05:17:33;25.83;;;10.50;;
73296;SDS011;61524;50.938;11.396;2023-03-01T05:19:59;23.65;;;10.25;;
73296;SDS011;61524;50.938;11.396;2023-03-01T05:22:24;18.05;;;9.38;;
73296;SDS011;61524;50.938;11.396;2023-03-01T05:24:49;17.40;;;8.77;;
73296;SDS011;61524;50.938;11.396;2023-03-01T05:27:15;19.00;;;9.27;;
73296;SDS011;61524;50.938;11.396;2023-03-01T05:29:40;27.00;;;10.47;;
73296;SDS011;61524;50.938;11.396;2023-03-01T05:32:05;20.48;;;9.20;;
73296;SDS011;61524;50.938;11.396;2023-03-01T05:34:32;21.13;;;9.68;;
73296;SDS011;61524;50.938;11.396;2023-03-01T05:36:58;18.15;;;10.13;;
73296;SDS011;61524;50.938;11.396;2023-03-01T05:39:24;20.00;;;10.00;;
73296;SDS011;61524;50.938;11.396;2023-03-01T05:41:57;21.08;;;10.00;;
73296;SDS011;61524;50.938;11.396;2023-03-01T05:44:23;19.98;;;10.13;;
73296;SDS011;61524;50.938;11.396;2023-03-01T05:46:49;17.58;;;8.60;;
73296;SDS011;61524;50.938;11.396;2023-03-01T05:49:14;19.77;;;10.05;;
73296;SDS011;61524;50.938;11.396;2023-03-01T05:51:40;23.33;;;9.65;;
73296;SDS011;61524;50.938;11.396;2023-03-01T05:54:06;18.63;;;9.82;;
73296;SDS011;61524;50.938;11.396;2023-03-01T05:56:32;22.02;;;10.55;;
73296;SDS011;61524;50.938;11.396;2023-03-01T05:58:58;27.85;;;12.02;;
73296;SDS011;61524;50.938;11.396;2023-03-01T06:01:23;19.07;;;9.30;;
73296;SDS011;61524;50.938;11.396;2023-03-01T06:03:48;20.27;;;9.53;;
73296;SDS011;61524;50.938;11.396;2023-03-01T06:06:14;18.30;;;9.87;;
73296;SDS011;61524;50.938;11.396;2023-03-01T06:08:39;25.60;;;10.90;;
73296;SDS011;61524;50.938;11.396;2023-03-01T06:11:04;15.87;;;8.13;;
73296;SDS011;61524;50.938;11.396;2023-03-01T06:13:30;23.45;;;9.88;;
73296;SDS011;61524;50.938;11.396;2023-03-01T06:15:55;25.20;;;9.57;;
73296;SDS011;61524;50.938;11.396;2023-03-01T06:18:20;22.30;;;9.33;;
73296;SDS011;61524;50.938;11.396;2023-03-01T06:20:51;21.10;;;9.82;;
73296;SDS011;61524;50.938;11.396;2023-03-01T06:23:17;18.92;;;9.48;;
73296;SDS011;61524;50.938;11.396;2023-03-01T06:25:42;18.43;;;9.40;;
73296;SDS011;61524;50.938;11.396;2023-03-01T06:28:07;22.43;;;11.13;;
73296;SDS011;61524;50.938;11.396;2023-03-01T06:30:32;20.37;;;9.83;;
73296;SDS011;61524;50.938;11.396;2023-03-01T06:32:58;24.00;;;10.30;;
73296;SDS011;61524;50.938;11.396;2023-03-01T06:35:26;23.00;;;11.13;;
73296;SDS011;61524;50.938;11.396;2023-03-01T06:37:54;23.92;;;10.88;;
73296;SDS011;61524;50.938;11.396;2023-03-01T06:40:20;19.65;;;9.32;;
73296;SDS011;61524;50.938;11.396;2023-03-01T06:42:47;20.42;;;9.43;;
73296;SDS011;61524;50.938;11.396;2023-03-01T06:45:14;22.63;;;11.13;;
73296;SDS011;61524;50.938;11.396;2023-03-01T06:47:39;19.35;;;9.85;;
73296;SDS011;61524;50.938;11.396;2023-03-01T06:50:04;23.43;;;9.53;;
73296;SDS011;61524;50.938;11.396;2023-03-01T06:52:30;22.85;;;10.25;;
73296;SDS011;61524;50.938;11.396;2023-03-01T06:54:55;18.60;;;9.32;;
73296;SDS011;61524;50.938;11.396;2023-03-01T06:57:21;27.30;;;11.77;;
73296;SDS011;61524;50.938;11.396;2023-03-01T06:59:46;20.58;;;8.70;;
73296;SDS011;61524;50.938;11.396;2023-03-01T07:02:12;18.75;;;10.23;;
73296;SDS011;61524;50.938;11.396;2023-03-01T07:04:38;18.98;;;10.68;;
73296;SDS011;61524;50.938;11.396;2023-03-01T07:07:03;15.27;;;7.22;;
73296;SDS011;61524;50.938;11.396;2023-03-01T07:09:29;23.58;;;9.77;;
73296;SDS011;61524;50.938;11.396;2023-03-01T07:11:54;19.17;;;9.63;;
73296;SDS011;61524;50.938;11.396;2023-03-01T07:14:19;28.45;;;10.80;;
73296;SDS011;61524;50.938;11.396;2023-03-01T07:16:45;18.42;;;10.85;;
73296;SDS011;61524;50.938;11.396;2023-03-01T07:19:10;24.40;;;10.82;;
73296;SDS011;61524;50.938;11.396;2023-03-01T07:21:36;21.97;;;10.77;;
73296;SDS011;61524;50.938;11.396;2023-03-01T07:24:03;25.10;;;10.43;;
73296;SDS011;61524;50.938;11.396;2023-03-01T07:26:29;26.05;;;11.73;;
73296;SDS011;61524;50.938;11.396;2023-03-01T07:28:54;25.75;;;11.07;;
73296;SDS011;61524;50.938;11.396;2023-03-01T07:31:19;25.57;;;11.00;;
73296;SDS011;61524;50.938;11.396;2023-03-01T07:33:45;23.43;;;9.97;;
73296;SDS011;61524;50.938;11.396;2023-03-01T07:36:10;24.52;;;11.88;;
73296;SDS011;61524;50.938;11.396;2023-03-01T07:38:36;24.85;;;10.48;;
73296;SDS011;61524;50.938;11.396;2023-03-01T07:41:01;24.17;;;11.80;;
73296;SDS011;61524;50.938;11.396;2023-03-01T07:43:27;28.08;;;11.45;;
73296;SDS011;61524;50.938;11.396;2023-03-01T07:45:53;30.20;;;11.93;;
73296;SDS011;61524;50.938;11.396;2023-03-01T07:48:18;22.17;;;11.20;;
73296;SDS011;61524;50.938;11.396;2023-03-01T07:50:43;24.02;;;11.25;;
73296;SDS011;61524;50.938;11.396;2023-03-01T07:53:09;25.13;;;12.00;;
73296;SDS011;61524;50.938;11.396;2023-03-01T07:55:34;23.05;;;12.10;;
73296;SDS011;61524;50.938;11.396;2023-03-01T07:58:00;24.20;;;11.85;;
73296;SDS011;61524;50.938;11.396;2023-03-01T08:00:25;27.38;;;13.52;;
73296;SDS011;61524;50.938;11.396;2023-03-01T08:02:51;29.63;;;11.77;;
73296;SDS011;61524;50.938;11.396;2023-03-01T08:05:16;29.47;;;13.67;;
73296;SDS011;61524;50.938;11.396;2023-03-01T08:07:41;29.13;;;13.40;;
73296;SDS011;61524;50.938;11.396;2023-03-01T08:10:07;22.50;;;11.60;;
73296;SDS011;61524;50.938;11.396;2023-03-01T08:12:32;28.83;;;13.05;;
73296;SDS011;61524;50.938;11.396;2023-03-01T08:14:57;22.67;;;11.80;;
73296;SDS011;61524;50.938;11.396;2023-03-01T08:17:23;30.43;;;13.90;;
73296;SDS011;61524;50.938;11.396;2023-03-01T08:19:48;25.90;;;13.50;;
73296;SDS011;61524;50.938;11.396;2023-03-01T08:22:13;23.80;;;12.48;;
73296;SDS011;61524;50.938;11.396;2023-03-01T08:24:39;28.73;;;13.00;;
73296;SDS011;61524;50.938;11.396;2023-03-01T08:27:04;22.30;;;11.47;;
73296;SDS011;61524;50.938;11.396;2023-03-01T08:29:33;25.30;;;12.50;;
73296;SDS011;61524;50.938;11.396;2023-03-01T08:31:58;26.33;;;12.25;;
73296;SDS011;61524;50.938;11.396;2023-03-01T08:34:23;26.80;;;12.27;;
73296;SDS011;61524;50.938;11.396;2023-03-01T08:36:49;22.63;;;12.77;;
73296;SDS011;61524;50.938;11.396;2023-03-01T08:41:41;22.10;;;10.00;;
73296;SDS011;61524;50.938;11.396;2023-03-01T08:44:07;17.85;;;10.25;;
73296;SDS011;61524;50.938;11.396;2023-03-01T08:46:33;19.20;;;11.10;;
73296;SDS011;61524;50.938;11.396;2023-03-01T08:48:59;22.15;;;10.55;;
73296;SDS011;61524;50.938;11.396;2023-03-01T08:51:25;27.58;;;12.05;;
73296;SDS011;61524;50.938;11.396;2023-03-01T08:53:50;20.10;;;11.32;;
73296;SDS011;61524;50.938;11.396;2023-03-01T08:56:16;22.10;;;11.23;;
73296;SDS011;61524;50.938;11.396;2023-03-01T08:58:44;20.73;;;11.35;;
73296;SDS011;61524;50.938;11.396;2023-03-01T09:01:10;20.77;;;10.90;;
73296;SDS011;61524;50.938;11.396;2023-03-01T09:03:36;23.38;;;10.93;;
73296;SDS011;61524;50.938;11.396;2023-03-01T09:06:02;22.17;;;11.45;;
73296;SDS011;61524;50.938;11.396;2023-03-01T09:08:28;24.15;;;13.43;;
73296;SDS011;61524;50.938;11.396;2023-03-01T09:10:53;26.00;;;13.45;;
73296;SDS011;61524;50.938;11.396;2023-03-01T09:13:19;19.40;;;10.43;;
73296;SDS011;61524;50.938;11.396;2023-03-01T09:15:44;20.90;;;11.57;;
73296;SDS011;61524;50.938;11.396;2023-03-01T09:18:09;22.30;;;10.53;;
73296;SDS011;61524;50.938;11.396;2023-03-01T09:20:34;21.73;;;10.30;;
73296;SDS011;61524;50.938;11.396;2023-03-01T09:23:00;20.80;;;10.23;;
73296;SDS011;61524;50.938;11.396;2023-03-01T09:25:25;22.00;;;11.18;;
73296;SDS011;61524;50.938;11.396;2023-03-01T09:27:51;23.73;;;11.27;;
73296;SDS011;61524;50.938;11.396;2023-03-01T09:30:16;18.58;;;9.88;;
73296;SDS011;61524;50.938;11.396;2023-03-01T09:32:42;17.15;;;9.50;;
73296;SDS011;61524;50.938;11.396;2023-03-01T09:35:07;19.45;;;9.35;;
73296;SDS011;61524;50.938;11.396;2023-03-01T09:37:33;24.23;;;10.82;;
73296;SDS011;61524;50.938;11.396;2023-03-01T09:39:59;17.65;;;9.05;;
73296;SDS011;61524;50.938;11.396;2023-03-01T09:42:25;18.92;;;9.23;;
73296;SDS011;61524;50.938;11.396;2023-03-01T09:44:52;21.05;;;9.60;;
73296;SDS011;61524;50.938;11.396;2023-03-01T09:47:33;16.33;;;8.68;;
73296;SDS011;61524;50.938;11.396;2023-03-01T09:50:12;11.85;;;5.75;;
73296;SDS011;61524;50.938;11.396;2023-03-01T09:52:40;16.17;;;8.38;;
73296;SDS011;61524;50.938;11.396;2023-03-01T09:55:13;20.35;;;8.57;;
73296;SDS011;61524;50.938;11.396;2023-03-01T09:57:47;19.00;;;9.15;;
73296;SDS011;61524;50.938;11.396;2023-03-01T10:05:39;14.77;;;7.10;;
73296;SDS011;61524;50.938;11.396;2023-03-01T10:10:50;14.13;;;8.45;;
73296;SDS011;61524;50.938;11.396;2023-03-01T10:13:19;14.98;;;7.60;;
73296;SDS011;61524;50.938;11.396;2023-03-01T10:15:53;15.55;;;7.93;;
73296;SDS011;61524;50.938;11.396;2023-03-01T10:18:21;16.90;;;8.32;;
73296;SDS011;61524;50.938;11.396;2023-03-01T10:20:57;16.77;;;8.77;;
73296;SDS011;61524;50.938;11.396;2023-03-01T10:23:23;18.17;;;8.52;;
73296;SDS011;61524;50.938;11.396;2023-03-01T10:30:54;16.35;;;7.75;;
73296;SDS011;61524;50.938;11.396;2023-03-01T10:33:29;19.23;;;9.25;;
73296;SDS011;61524;50.938;11.396;2023-03-01T10:35:55;15.55;;;8.00;;
73296;SDS011;61524;50.938;11.396;2023-03-01T10:38:20;21.07;;;7.20;;
73296;SDS011;61524;50.938;11.396;2023-03-01T10:43:17;15.80;;;8.68;;
73296;SDS011;61524;50.938;11.396;2023-03-01T10:45:42;18.77;;;10.25;;
73296;SDS011;61524;50.938;11.396;2023-03-01T10:50:33;16.93;;;9.83;;
73296;SDS011;61524;50.938;11.396;2023-03-01T10:52:59;18.15;;;8.93;;
73296;SDS011;61524;50.938;11.396;2023-03-01T10:57:50;16.15;;;8.25;;
73296;SDS011;61524;50.938;11.396;2023-03-01T11:00:31;15.23;;;8.57;;
73296;SDS011;61524;50.938;11.396;2023-03-01T11:05:25;15.65;;;7.85;;
73296;SDS011;61524;50.938;11.396;2023-03-01T11:07:52;16.45;;;8.68;;
73296;SDS011;61524;50.938;11.396;2023-03-01T11:10:18;14.35;;;7.25;;
73296;SDS011;61524;50.938;11.396;2023-03-01T11:12:44;17.92;;;9.20;;
73296;SDS011;61524;50.938;11.396;2023-03-01T11:15:19;17.83;;;8.30;;
73296;SDS011;61524;50.938;11.396;2023-03-01T11:17:45;8.98;;;5.13;;
73296;SDS011;61524;50.938;11.396;2023-03-01T11:22:41;20.77;;;11.05;;
73296;SDS011;61524;50.938;11.396;2023-03-01T11:25:11;14.15;;;8.45;;
73296;SDS011;61524;50.938;11.396;2023-03-01T11:27:40;22.52;;;11.35;;
73296;SDS011;61524;50.938;11.396;2023-03-01T11:32:34;16.02;;;9.93;;
73296;SDS011;61524;50.938;11.396;2023-03-01T11:35:05;17.80;;;10.20;;
73296;SDS011;61524;50.938;11.396;2023-03-01T11:42:46;17.65;;;8.43;;
73296;SDS011;61524;50.938;11.396;2023-03-01T11:45:13;15.38;;;7.32;;
73296;SDS011;61524;50.938;11.396;2023-03-01T12:34:03;16.38;;;8.07;;
73296;SDS011;61524;50.938;11.396;2023-03-01T12:41:46;18.73;;;7.72;;
73296;SDS011;61524;50.938;11.396;2023-03-01T12:44:35;15.20;;;7.18;;
73296;SDS011;61524;50.938;11.396;2023-03-01T12:47:14;13.23;;;6.80;;
73296;SDS011;61524;50.938;11.396;2023-03-01T12:49:43;14.40;;;7.30;;
73296;SDS011;61524;50.938;11.396;2023-03-01T12:54:35;12.90;;;6.00;;
73296;SDS011;61524;50.938;11.396;2023-03-01T12:57:25;12.93;;;6.63;;
73296;SDS011;61524;50.938;11.396;2023-03-01T13:15:24;17.25;;;7.35;;
73296;SDS011;61524;50.938;11.396;2023-03-01T13:17:58;16.98;;;7.00;;
73296;SDS011;61524;50.938;11.396;2023-03-01T13:20:30;16.65;;;7.85;;
73296;SDS011;61524;50.938;11.396;2023-03-01T13:31:01;18.13;;;7.32;;
73296;SDS011;61524;50.938;11.396;2023-03-01T13:33:33;15.63;;;6.63;;
73296;SDS011;61524;50.938;11.396;2023-03-01T13:36:01;12.98;;;6.75;;
73296;SDS011;61524;50.938;11.396;2023-03-01T13:38:44;14.27;;;6.73;;
73296;SDS011;61524;50.938;11.396;2023-03-01T13:41:10;12.38;;;6.82;;
73296;SDS011;61524;50.938;11.396;2023-03-01T13:43:37;15.50;;;7.93;;
73296;SDS011;61524;50.938;11.396;2023-03-01T13:48:40;11.75;;;5.82;;
73296;SDS011;61524;50.938;11.396;2023-03-01T13:51:07;12.97;;;6.70;;
73296;SDS011;61524;50.938;11.396;2023-03-01T13:53:34;13.73;;;7.13;;
73296;SDS011;61524;50.938;11.396;2023-03-01T13:56:02;13.43;;;7.70;;
73296;SDS011;61524;50.938;11.396;2023-03-01T13:58:31;12.52;;;6.30;;
73296;SDS011;61524;50.938;11.396;2023-03-01T14:01:04;10.13;;;5.32;;
73296;SDS011;61524;50.938;11.396;2023-03-01T14:03:30;13.07;;;7.10;;
73296;SDS011;61524;50.938;11.396;2023-03-01T14:06:12;13.32;;;7.32;;
73296;SDS011;61524;50.938;11.396;2023-03-01T14:08:38;10.60;;;6.03;;
73296;SDS011;61524;50.938;11.396;2023-03-01T14:11:10;14.60;;;7.35;;
73296;SDS011;61524;50.938;11.396;2023-03-01T14:18:58;14.77;;;7.18;;
73296;SDS011;61524;50.938;11.396;2023-03-01T14:21:26;13.95;;;6.03;;
73296;SDS011;61524;50.938;11.396;2023-03-01T14:23:51;10.48;;;5.43;;
73296;SDS011;61524;50.938;11.396;2023-03-01T14:26:20;14.35;;;6.15;;
73296;SDS011;61524;50.938;11.396;2023-03-01T14:28:45;14.10;;;5.82;;
73296;SDS011;61524;50.938;11.396;2023-03-01T14:33:58;10.70;;;5.63;;
73296;SDS011;61524;50.938;11.396;2023-03-01T14:36:28;19.45;;;6.80;;
73296;SDS011;61524;50.938;11.396;2023-03-01T14:38:53;9.63;;;5.05;;
73296;SDS011;61524;50.938;11.396;2023-03-01T14:41:23;12.52;;;6.35;;
73296;SDS011;61524;50.938;11.396;2023-03-01T14:43:59;13.07;;;6.47;;
73296;SDS011;61524;50.938;11.396;2023-03-01T14:48:54;13.95;;;6.50;;
73296;SDS011;61524;50.938;11.396;2023-03-01T14:51:21;12.93;;;6.90;;
73296;SDS011;61524;50.938;11.396;2023-03-01T14:53:47;14.98;;;6.72;;
73296;SDS011;61524;50.938;11.396;2023-03-01T14:56:13;11.60;;;6.28;;
73296;SDS011;61524;50.938;11.396;2023-03-01T14:58:39;15.35;;;7.38;;
73296;SDS011;61524;50.938;11.396;2023-03-01T15:01:04;12.17;;;6.40;;
73296;SDS011;61524;50.938;11.396;2023-03-01T15:03:31;19.00;;;8.38;;
73296;SDS011;61524;50.938;11.396;2023-03-01T15:05:58;13.75;;;7.80;;
73296;SDS011;61524;50.938;11.396;2023-03-01T15:08:25;15.93;;;8.55;;
73296;SDS011;61524;50.938;11.396;2023-03-01T15:10:57;20.20;;;8.57;;
73296;SDS011;61524;50.938;11.396;2023-03-01T15:13:24;14.70;;;8.15;;
73296;SDS011;61524;50.938;11.396;2023-03-01T15:15:50;19.42;;;9.07;;
73296;SDS011;61524;50.938;11.396;2023-03-01T15:18:17;17.88;;;9.23;;
73296;SDS011;61524;50.938;11.396;2023-03-01T15:25:47;13.18;;;6.07;;
73296;SDS011;61524;50.938;11.396;2023-03-01T15:28:19;13.48;;;7.25;;
73296;SDS011;61524;50.938;11.396;2023-03-01T15:30:52;15.95;;;8.30;;
73296;SDS011;61524;50.938;11.396;2023-03-01T15:35:53;11.48;;;6.15;;
73296;SDS011;61524;50.938;11.396;2023-03-01T15:40:58;13.88;;;7.80;;
73296;SDS011;61524;50.938;11.396;2023-03-01T15:46:04;14.32;;;7.63;;
73296;SDS011;61524;50.938;11.396;2023-03-01T15:48:29;13.60;;;6.63;;
73296;SDS011;61524;50.938;11.396;2023-03-01T15:50:55;14.07;;;7.63;;
73296;SDS011;61524;50.938;11.396;2023-03-01T15:53:21;17.08;;;8.15;;
73296;SDS011;61524;50.938;11.396;2023-03-01T15:55:47;17.98;;;8.80;;
73296;SDS011;61524;50.938;11.396;2023-03-01T16:00:39;22.07;;;8.90;;
73296;SDS011;61524;50.938;11.396;2023-03-01T16:03:05;19.10;;;7.45;;
73296;SDS011;61524;50.938;11.396;2023-03-01T16:05:32;15.60;;;7.70;;
73296;SDS011;61524;50.938;11.396;2023-03-01T16:07:59;14.98;;;7.30;;
73296;SDS011;61524;50.938;11.396;2023-03-01T16:10:25;14.93;;;7.32;;
73296;SDS011;61524;50.938;11.396;2023-03-01T16:12:51;18.13;;;8.25;;
73296;SDS011;61524;50.938;11.396;2023-03-01T16:15:21;15.82;;;7.47;;
73296;SDS011;61524;50.938;11.396;2023-03-01T16:17:47;16.83;;;8.00;;
73296;SDS011;61524;50.938;11.396;2023-03-01T16:20:13;15.35;;;7.53;;
73296;SDS011;61524;50.938;11.396;2023-03-01T16:22:41;15.73;;;7.78;;
73296;SDS011;61524;50.938;11.396;2023-03-01T16:25:08;15.10;;;7.88;;
73296;SDS011;61524;50.938;11.396;2023-03-01T16:27:33;13.40;;;7.28;;
73296;SDS011;61524;50.938;11.396;2023-03-01T16:29:59;16.57;;;7.17;;
73296;SDS011;61524;50.938;11.396;2023-03-01T16:32:24;15.67;;;7.00;;
73296;SDS011;61524;50.938;11.396;2023-03-01T16:34:49;14.48;;;6.03;;
73296;SDS011;61524;50.938;11.396;2023-03-01T16:37:15;12.45;;;6.60;;
73296;SDS011;61524;50.938;11.396;2023-03-01T16:39:40;12.02;;;6.10;;
73296;SDS011;61524;50.938;11.396;2023-03-01T16:42:06;14.63;;;6.97;;
73296;SDS011;61524;50.938;11.396;2023-03-01T16:44:31;15.60;;;7.65;;
73296;SDS011;61524;50.938;11.396;2023-03-01T16:46:56;14.40;;;7.17;;
73296;SDS011;61524;50.938;11.396;2023-03-01T16:49:22;15.32;;;7.68;;